Time;durP1;ratioP1;P1;durP2;ratioP2;P2;SDS_P1;SDS_P2;PMS_P1;PMS_P2;Temp;Humidity;BMP_temperature;BMP_pressure;BME280_temperature;BME280_humidity;BME280_pressure;Samples;Min_cycle;Max_cycle;Signal;HPM_P1;HPM_P2
2021/03/13 00:00:30;;;;;;;0.93;0.93;;;;;;;3.88;92.48;99020.66;5072232;28;20174;-74
2021/03/13 00:02:58;;;;;;;0.63;0.60;;;;;;;3.89;92.35;99011.44;5071782;28;20175;-77
2021/03/13 00:05:26;;;;;;;1.40;1.30;;;;;;;3.87;91.68;99002.84;5072319;28;20198;-74
2021/03/13 00:07:52;;;;;;;0.03;0.03;;;;;;;3.87;91.73;99012.84;5072322;28;20175;-77
2021/03/13 00:10:18;;;;;;;1.17;1.13;;;;;;;3.88;91.83;99017.16;5072465;28;20170;-76
2021/03/13 00:12:43;;;;;;;7.10;0.93;;;;;;;3.96;91.52;99015.66;5072582;28;20262;-76
2021/03/13 00:15:13;;;;;;;0.33;0.33;;;;;;;3.98;91.34;99022.34;5072368;28;20309;-76
2021/03/13 00:17:39;;;;;;;1.17;1.17;;;;;;;4.03;90.87;99026.84;5072080;28;20179;-76
2021/03/13 00:20:05;;;;;;;0.73;0.73;;;;;;;4.06;90.47;99021.66;5072500;28;20174;-75
2021/03/13 00:22:31;;;;;;;0.80;0.77;;;;;;;4.13;89.99;99019.31;5072458;28;20162;-77
2021/03/13 00:24:56;;;;;;;1.07;1.07;;;;;;;4.17;90.39;99014.88;5072281;28;20229;-78
2021/03/13 00:27:21;;;;;;;0.50;0.50;;;;;;;4.19;90.10;99020.00;5080380;28;20270;-74
2021/03/13 00:29:47;;;;;;;7.70;1.90;;;;;;;4.20;90.23;98996.50;5078990;28;20194;-75
2021/03/13 00:32:12;;;;;;;0.80;0.80;;;;;;;4.23;90.15;99003.97;5073083;28;20176;-75
2021/03/13 00:34:38;;;;;;;1.40;1.10;;;;;;;4.21;89.94;99001.59;5071687;28;20685;-75
2021/03/13 00:37:03;;;;;;;1.40;1.30;;;;;;;4.31;89.21;98997.84;5071472;28;20551;-75
2021/03/13 00:39:29;;;;;;;1.23;1.13;;;;;;;4.31;89.84;98990.53;5071805;28;20654;-75
2021/03/13 00:41:54;;;;;;;1.53;1.43;;;;;;;4.31;89.33;98990.53;5071504;28;20260;-77
2021/03/13 00:44:19;;;;;;;3.07;1.07;;;;;;;4.33;89.12;98990.22;5071542;28;20198;-78
2021/03/13 00:46:45;;;;;;;0.67;0.67;;;;;;;4.33;88.76;98984.81;5071152;28;20179;-77
2021/03/13 00:49:10;;;;;;;1.00;1.00;;;;;;;4.32;88.77;98981.31;5071482;28;20707;-78
2021/03/13 00:51:36;;;;;;;1.40;0.70;;;;;;;4.33;88.43;98980.19;5064470;28;20653;-77
2021/03/13 00:54:01;;;;;;;0.53;0.33;;;;;;;4.34;88.22;98981.81;5051469;28;20171;-77
2021/03/13 00:56:27;;;;;;;0.10;0.10;;;;;;;4.41;87.69;98976.78;5033191;28;20179;-77
2021/03/13 00:58:52;;;;;;;0.57;0.57;;;;;;;4.42;87.28;98986.50;5051406;28;20210;-77
2021/03/13 01:01:18;;;;;;;0.27;0.27;;;;;;;4.44;87.10;98978.88;5033271;28;20228;-76
2021/03/13 01:03:44;;;;;;;1.23;1.17;;;;;;;4.38;88.33;98973.91;5051482;28;20195;-74
2021/03/13 01:06:09;;;;;;;4.27;2.80;;;;;;;4.39;87.99;98978.19;5050942;28;20227;-77
2021/03/13 01:08:35;;;;;;;0.47;0.47;;;;;;;4.41;87.21;98973.28;5051117;28;20167;-75
2021/03/13 01:11:00;;;;;;;1.63;1.20;;;;;;;4.46;87.32;98970.44;5033211;28;20168;-77
2021/03/13 01:13:26;;;;;;;0.60;0.60;;;;;;;4.46;87.41;98965.03;5032630;28;20175;-77
2021/03/13 01:15:52;;;;;;;0.57;0.57;;;;;;;4.52;86.63;98966.53;5050568;28;20171;-77
2021/03/13 01:18:19;;;;;;;0.97;0.97;;;;;;;4.55;86.11;98962.41;5050665;28;20167;-78
2021/03/13 01:20:45;;;;;;;0.60;0.60;;;;;;;4.62;86.02;98960.03;5050886;28;20167;-77
2021/03/13 01:23:11;;;;;;;1.43;1.33;;;;;;;4.68;85.29;98958.84;5050919;28;20695;-77
2021/03/13 01:25:36;;;;;;;0.40;0.40;;;;;;;4.70;84.94;98952.00;5050087;28;20286;-77
2021/03/13 01:28:02;;;;;;;1.20;1.20;;;;;;;4.72;84.81;98944.38;5050294;28;20203;-74
2021/03/13 01:30:27;;;;;;;0.53;0.20;;;;;;;4.76;84.86;98944.53;5051257;28;20241;-76
2021/03/13 01:32:53;;;;;;;0.87;0.87;;;;;;;4.75;84.91;98935.63;5032865;28;20168;-77
2021/03/13 01:35:19;;;;;;;0.77;0.77;;;;;;;4.84;84.00;98938.41;5050521;28;20220;-77
2021/03/13 01:37:45;;;;;;;3.23;0.93;;;;;;;4.85;84.68;98929.16;5050379;28;20171;-77
2021/03/13 01:40:16;;;;;;;1.60;1.50;;;;;;;4.92;83.64;98934.94;5050547;28;20229;-77
2021/03/13 01:42:46;;;;;;;0.30;0.30;;;;;;;4.95;84.29;98928.09;5050699;28;20178;-74
2021/03/13 01:45:13;;;;;;;0.83;0.83;;;;;;;4.98;83.14;98928.28;5050458;28;20201;-77
2021/03/13 01:47:39;;;;;;;11.70;0.50;;;;;;;5.04;83.37;98926.22;5050155;28;20643;-77
2021/03/13 01:50:08;;;;;;;0.20;0.13;;;;;;;5.06;83.22;98924.00;5050372;28;20174;-77
2021/03/13 01:52:34;;;;;;;0.60;0.60;;;;;;;5.11;82.78;98923.88;5050493;28;20309;-76
2021/03/13 01:55:01;;;;;;;0.30;0.27;;;;;;;5.12;83.23;98911.94;5050221;28;20278;-75
2021/03/13 01:57:27;;;;;;;0.67;0.67;;;;;;;5.16;82.61;98917.50;5050164;28;20178;-77
2021/03/13 01:59:52;;;;;;;0.40;0.40;;;;;;;5.21;82.35;98910.06;5050465;28;20635;-78
2021/03/13 02:02:18;;;;;;;0.60;0.60;;;;;;;5.24;82.15;98901.31;5050299;28;20767;-74
2021/03/13 02:04:44;;;;;;;0.20;0.20;;;;;;;5.25;82.45;98905.63;5050291;28;20198;-74
2021/03/13 02:07:28;;;;;;;0.10;0.10;;;;;;;5.31;81.50;98895.44;5050115;28;20185;-75
2021/03/13 02:10:02;;;;;;;1.40;0.77;;;;;;;5.31;81.33;98904.34;5050188;28;20178;-74
2021/03/13 02:12:53;;;;;;;0.30;0.30;;;;;;;5.33;82.09;98890.50;5050445;28;20304;-74
2021/03/13 02:15:41;;;;;;;1.53;1.43;;;;;;;5.27;82.24;98886.34;5050072;28;20171;-77
2021/03/13 02:18:22;;;;;;;3.40;1.20;;;;;;;5.30;81.23;98877.59;5049851;28;20174;-74
2021/03/13 02:21:04;;;;;;;0.30;0.30;;;;;;;5.32;81.46;98888.91;5050471;28;20293;-74
2021/03/13 02:23:57;;;;;;;0.77;0.77;;;;;;;5.31;81.44;98881.88;5049236;28;20220;-74
2021/03/13 02:26:43;;;;;;;0.10;0.10;;;;;;;5.40;80.75;98873.78;5050134;28;20310;-77
2021/03/13 02:29:15;;;;;;;1.47;0.87;;;;;;;5.38;80.76;98871.41;5054043;28;20183;-74
2021/03/13 02:31:47;;;;;;;0.10;0.10;;;;;;;5.36;80.99;98868.22;5054028;28;20163;-74
2021/03/13 02:34:18;;;;;;;0.50;0.50;;;;;;;5.35;81.32;98867.44;5053958;28;20168;-74
2021/03/13 02:36:45;;;;;;;1.77;0.93;;;;;;;5.34;81.66;98860.38;5053360;28;20182;-74
2021/03/13 02:39:13;;;;;;;5.50;0.67;;;;;;;5.35;81.06;98851.19;5053831;28;20171;-74
2021/03/13 02:41:43;;;;;;;7.67;0.63;;;;;;;5.35;81.26;98855.75;5053856;28;20174;-74
2021/03/13 02:44:11;;;;;;;0.03;0.03;;;;;;;5.35;81.21;98847.66;5053741;28;20175;-76
2021/03/13 02:46:45;;;;;;;3.50;1.30;;;;;;;5.38;80.90;98850.53;5053293;28;20534;-77
2021/03/13 02:49:11;;;;;;;4.87;0.67;;;;;;;5.40;80.93;98838.59;5054018;28;20213;-74
2021/03/13 02:51:39;;;;;;;1.00;0.90;;;;;;;5.38;81.41;98836.19;5053616;28;20172;-74
2021/03/13 02:54:06;;;;;;;0.00;0.00;;;;;;;5.36;81.35;98831.09;5054051;28;20183;-74
2021/03/13 02:56:34;;;;;;;0.30;0.30;;;;;;;5.35;81.16;98831.41;5053071;28;20181;-77
2021/03/13 02:59:01;;;;;;;0.30;0.30;;;;;;;5.36;80.92;98828.41;5067151;28;20175;-74
2021/03/13 03:01:29;;;;;;;1.07;0.90;;;;;;;5.33;81.71;98831.72;5073546;28;20181;-74
2021/03/13 03:03:56;;;;;;;0.23;0.23;;;;;;;5.38;81.61;98823.47;5073489;28;20174;-77
2021/03/13 03:06:22;;;;;;;0.90;0.90;;;;;;;5.37;81.10;98819.16;5073171;28;20209;-74
2021/03/13 03:08:49;;;;;;;0.53;0.50;;;;;;;5.37;81.47;98821.06;5073259;28;20175;-75
2021/03/13 03:11:19;;;;;;;0.30;0.30;;;;;;;5.41;80.25;98816.59;5073480;28;20198;-73
2021/03/13 03:13:45;;;;;;;0.20;0.20;;;;;;;5.42;80.55;98810.06;5073303;28;20567;-74
2021/03/13 03:16:11;;;;;;;0.30;0.30;;;;;;;5.42;80.84;98801.16;5072868;28;20175;-73
2021/03/13 03:18:38;;;;;;;0.10;0.10;;;;;;;5.46;80.30;98802.09;5073164;28;20170;-76
2021/03/13 03:21:04;;;;;;;0.10;0.10;;;;;;;5.47;80.35;98798.28;5073243;28;20171;-77
2021/03/13 03:23:30;;;;;;;1.50;1.30;;;;;;;5.51;79.54;98788.44;5072202;28;20171;-76
2021/03/13 03:25:56;;;;;;;0.30;0.30;;;;;;;5.53;79.37;98780.78;5073035;28;20240;-73
2021/03/13 03:28:22;;;;;;;0.70;0.70;;;;;;;5.52;80.11;98773.75;5072695;28;20315;-74
2021/03/13 03:30:49;;;;;;;0.30;0.30;;;;;;;5.55;79.06;98767.69;5073212;28;20216;-77
2021/03/13 03:33:15;;;;;;;1.03;0.37;;;;;;;5.54;79.71;98774.25;5073340;28;20556;-73
2021/03/13 03:35:42;;;;;;;4.30;0.60;;;;;;;5.53;79.70;98775.34;5072969;28;20257;-74
2021/03/13 03:38:08;;;;;;;0.10;0.10;;;;;;;5.57;79.04;98776.31;5071426;28;20171;-74
2021/03/13 03:40:34;;;;;;;0.20;0.20;;;;;;;5.55;79.21;98757.66;5072954;28;20170;-74
2021/03/13 03:43:08;;;;;;;3.40;0.43;;;;;;;5.54;79.36;98758.00;5072516;28;20240;-73
2021/03/13 03:45:34;;;;;;;1.67;1.57;;;;;;;5.54;79.28;98760.69;5073156;28;20296;-76
2021/03/13 03:48:08;;;;;;;3.93;0.50;;;;;;;5.52;79.95;98752.09;5072426;28;20217;-74
2021/03/13 03:50:34;;;;;;;0.60;0.60;;;;;;;5.54;79.80;98750.66;5072891;28;20174;-74
2021/03/13 03:53:01;;;;;;;0.20;0.20;;;;;;;5.54;79.46;98750.66;5072652;28;20175;-76
2021/03/13 03:55:27;;;;;;;0.00;0.00;;;;;;;5.55;79.74;98751.44;5072353;28;20520;-75
2021/03/13 03:57:54;;;;;;;0.80;0.80;;;;;;;5.54;79.66;98750.66;5072419;28;20181;-74
2021/03/13 04:00:21;;;;;;;0.10;0.10;;;;;;;5.56;79.63;98742.22;5072847;28;20579;-77
2021/03/13 04:02:47;;;;;;;0.33;0.33;;;;;;;5.56;79.64;98742.22;5072447;28;20197;-75
2021/03/13 04:05:16;;;;;;;0.57;0.43;;;;;;;5.51;79.50;98731.53;5072312;28;20561;-74
2021/03/13 04:07:42;;;;;;;0.00;0.00;;;;;;;5.59;79.53;98738.84;5072116;28;20243;-74
2021/03/13 04:10:09;;;;;;;0.63;0.37;;;;;;;5.53;79.95;98743.66;5072281;28;20667;-74
2021/03/13 04:12:39;;;;;;;0.40;0.37;;;;;;;5.46;80.51;98724.34;5072212;28;20178;-73
2021/03/13 04:15:10;;;;;;;0.23;0.23;;;;;;;5.43;81.31;98725.00;5054301;28;20178;-74
2021/03/13 04:17:39;;;;;;;0.63;0.40;;;;;;;5.37;82.02;98716.25;5071686;28;20171;-73
2021/03/13 04:20:07;;;;;;;0.20;0.20;;;;;;;5.42;81.88;98707.16;5072055;28;20170;-74
2021/03/13 04:22:33;;;;;;;0.20;0.20;;;;;;;5.41;81.50;98699.38;5072150;28;20476;-75
2021/03/13 04:25:01;;;;;;;0.40;0.40;;;;;;;5.37;81.40;98691.88;5053274;28;20669;-74
2021/03/13 04:27:27;;;;;;;0.47;0.20;;;;;;;5.42;81.54;98690.13;5071736;28;20177;-74
2021/03/13 04:29:52;;;;;;;0.13;0.13;;;;;;;5.40;81.77;98684.22;5071878;28;20627;-74
2021/03/13 04:32:18;;;;;;;0.00;0.00;;;;;;;5.36;82.03;98679.47;5071685;28;20772;-74
2021/03/13 04:34:46;;;;;;;0.33;0.30;;;;;;;5.33;81.66;98676.56;5072063;28;20171;-74
2021/03/13 04:37:11;;;;;;;0.10;0.10;;;;;;;5.20;83.05;98661.31;5072089;28;20167;-73
2021/03/13 04:39:41;;;;;;;0.30;0.20;;;;;;;5.28;82.54;98663.22;5071788;28;20232;-74
2021/03/13 04:42:08;;;;;;;0.20;0.20;;;;;;;5.27;83.46;98661.63;5071613;28;20202;-73
2021/03/13 04:44:34;;;;;;;0.33;0.33;;;;;;;5.15;84.64;98653.34;5071737;28;20195;-74
2021/03/13 04:47:01;;;;;;;0.40;0.40;;;;;;;5.20;84.97;98650.47;5071130;28;20699;-74
2021/03/13 04:49:26;;;;;;;0.20;0.20;;;;;;;5.17;85.90;98649.19;5071525;28;20178;-75
2021/03/13 04:51:54;;;;;;;0.07;0.07;;;;;;;5.12;85.07;98643.16;5071164;28;20175;-74
2021/03/13 04:54:19;;;;;;;0.40;0.40;;;;;;;5.12;85.53;98641.25;5071447;28;20202;-74
2021/03/13 04:56:44;;;;;;;0.40;0.40;;;;;;;5.11;85.93;98633.47;5070967;28;20599;-73
2021/03/13 04:59:10;;;;;;;0.60;0.60;;;;;;;5.08;86.35;98629.47;5071210;28;20182;-74
2021/03/13 05:01:35;;;;;;;0.10;0.10;;;;;;;5.03;86.49;98638.53;5071092;28;20178;-75
2021/03/13 05:04:01;;;;;;;0.47;0.47;;;;;;;5.04;86.69;98618.47;5071433;28;20174;-77
2021/03/13 05:06:26;;;;;;;0.00;0.00;;;;;;;4.99;87.52;98615.94;5061972;28;20532;-74
2021/03/13 05:08:51;;;;;;;0.00;0.00;;;;;;;5.01;87.66;98615.63;5051214;28;20183;-74
2021/03/13 05:11:17;;;;;;;0.37;0.37;;;;;;;5.00;87.45;98605.91;5051136;28;20254;-76
2021/03/13 05:13:43;;;;;;;0.47;0.47;;;;;;;4.94;88.61;98612.63;5050953;28;20264;-74
2021/03/13 05:16:08;;;;;;;0.30;0.30;;;;;;;4.97;88.92;98598.44;5050999;28;20203;-74
2021/03/13 05:18:34;;;;;;;0.30;0.30;;;;;;;4.94;89.74;98594.47;5050808;28;20225;-75
2021/03/13 05:20:59;;;;;;;0.97;0.97;;;;;;;4.93;89.47;98575.84;5050938;28;20179;-77
2021/03/13 05:23:25;;;;;;;0.27;0.27;;;;;;;4.90;89.63;98585.38;5050235;28;20199;-73
2021/03/13 05:25:50;;;;;;;0.90;0.60;;;;;;;4.88;89.30;98573.28;5050654;28;20556;-76
2021/03/13 05:28:15;;;;;;;0.10;0.10;;;;;;;4.82;90.29;98571.88;5050207;28;20206;-76
2021/03/13 05:30:41;;;;;;;0.13;0.13;;;;;;;4.74;91.19;98571.53;5050592;28;20209;-74
2021/03/13 05:33:07;;;;;;;0.00;0.00;;;;;;;4.76;90.99;98572.03;5050524;28;20181;-74
2021/03/13 05:35:32;;;;;;;0.07;0.07;;;;;;;4.76;91.47;98568.53;5050781;28;20187;-74
2021/03/13 05:37:58;;;;;;;0.30;0.20;;;;;;;4.76;91.30;98555.78;5050065;28;20199;-73
2021/03/13 05:40:23;;;;;;;0.53;0.53;;;;;;;4.71;91.24;98552.47;5050603;28;20854;-76
2021/03/13 05:42:50;;;;;;;0.40;0.30;;;;;;;4.69;91.40;98544.66;5032617;28;20517;-73
2021/03/13 05:45:16;;;;;;;0.30;0.30;;;;;;;4.67;91.53;98525.25;5050205;28;20288;-75
2021/03/13 05:47:42;;;;;;;0.10;0.10;;;;;;;4.70;91.94;98523.81;5050318;28;20309;-73
2021/03/13 05:50:13;;;;;;;0.40;0.40;;;;;;;4.66;92.27;98525.59;5050417;28;20569;-74
2021/03/13 05:52:39;;;;;;;4.60;0.67;;;;;;;4.68;92.02;98507.91;5050640;28;20170;-74
2021/03/13 05:55:09;;;;;;;0.33;0.33;;;;;;;4.65;91.98;98507.78;5050291;28;20635;-73
2021/03/13 05:57:35;;;;;;;0.63;0.63;;;;;;;4.64;92.26;98496.16;5049873;28;20183;-76
2021/03/13 06:00:01;;;;;;;1.00;0.80;;;;;;;4.60;92.33;98492.47;5050004;28;20316;-76
2021/03/13 06:02:26;;;;;;;0.10;0.10;;;;;;;4.63;92.74;98486.47;5050433;28;20175;-74
2021/03/13 06:04:53;;;;;;;0.63;0.63;;;;;;;4.60;92.76;98470.84;5050264;28;20248;-74
2021/03/13 06:07:23;;;;;;;0.70;0.70;;;;;;;4.60;92.56;98461.94;5050067;28;20203;-77
2021/03/13 06:09:53;;;;;;;0.80;0.80;;;;;;;4.58;93.08;98451.44;5050253;28;20202;-74
2021/03/13 06:12:18;;;;;;;0.70;0.70;;;;;;;4.65;93.08;98450.97;5032313;28;20183;-73
2021/03/13 06:14:51;;;;;;;0.27;0.27;;;;;;;4.66;92.91;98449.84;5050137;28;20705;-76
2021/03/13 06:17:17;;;;;;;0.97;0.90;;;;;;;4.66;93.18;98447.94;5049818;28;20186;-73
2021/03/13 06:19:51;;;;;;;1.30;1.20;;;;;;;4.62;93.55;98443.47;5050058;28;20202;-74
2021/03/13 06:22:35;;;;;;;0.60;0.53;;;;;;;4.64;93.48;98439.38;5050241;28;20176;-74
2021/03/13 06:25:18;;;;;;;0.40;0.40;;;;;;;4.68;93.60;98426.78;5049602;28;20199;-76
2021/03/13 06:27:59;;;;;;;0.40;0.40;;;;;;;4.69;93.82;98422.97;5050260;28;20172;-77
2021/03/13 06:30:37;;;;;;;0.20;0.20;;;;;;;4.73;92.79;98425.81;5060183;28;20183;-75
2021/03/13 06:33:30;;;;;;;0.73;0.30;;;;;;;4.71;93.95;98411.81;5053894;28;20179;-75
2021/03/13 06:36:00;;;;;;;0.10;0.10;;;;;;;4.76;93.70;98411.63;5046850;28;20203;-78
2021/03/13 06:38:28;;;;;;;1.07;1.07;;;;;;;4.78;93.45;98395.91;5032147;28;20175;-78
2021/03/13 06:40:56;;;;;;;0.30;0.30;;;;;;;4.81;93.02;98394.44;5050298;28;20207;-78
2021/03/13 06:43:30;;;;;;;0.23;0.13;;;;;;;4.76;93.79;98398.91;5050118;28;20689;-78
2021/03/13 06:46:00;;;;;;;0.30;0.30;;;;;;;4.83;92.55;98389.50;5049871;28;20222;-75
2021/03/13 06:48:34;;;;;;;0.27;0.10;;;;;;;4.84;93.22;98385.69;5049817;28;20325;-76
2021/03/13 06:51:38;;;;;;;0.30;0.30;;;;;;;4.85;92.95;98374.53;5049911;28;20171;-75
2021/03/13 06:54:19;;;;;;;0.60;0.60;;;;;;;4.85;93.62;98368.31;5049834;28;20171;-76
2021/03/13 06:56:57;;;;;;;0.03;0.00;;;;;;;4.86;93.92;98359.09;5049931;28;20225;-76
2021/03/13 06:59:31;;;;;;;0.10;0.10;;;;;;;4.86;93.29;98346.34;5049899;28;20233;-78
2021/03/13 07:02:07;;;;;;;0.10;0.10;;;;;;;4.93;92.85;98340.47;5049764;28;20170;-77
2021/03/13 07:04:36;;;;;;;0.03;0.03;;;;;;;4.92;92.84;98342.38;5049625;28;20254;-75
2021/03/13 07:07:02;;;;;;;0.37;0.20;;;;;;;4.90;92.76;98319.44;5049485;28;20187;-78
2021/03/13 07:09:43;;;;;;;0.10;0.10;;;;;;;4.96;92.64;98326.28;5049694;28;20212;-78
2021/03/13 07:12:34;;;;;;;0.37;0.37;;;;;;;4.88;93.90;98310.84;5050263;28;20175;-76
2021/03/13 07:15:17;;;;;;;0.00;0.00;;;;;;;4.90;93.06;98301.28;5053300;28;20225;-75
2021/03/13 07:17:53;;;;;;;0.20;0.20;;;;;;;4.90;93.42;98304.00;5052861;28;20190;-78
2021/03/13 07:20:28;;;;;;;0.10;0.10;;;;;;;4.96;93.22;98291.09;5053339;28;20645;-75
2021/03/13 07:22:56;;;;;;;0.40;0.40;;;;;;;4.99;93.41;98280.41;5057529;28;20166;-74
2021/03/13 07:25:23;;;;;;;0.77;0.57;;;;;;;4.98;93.40;98289.63;5072692;28;20202;-75
2021/03/13 07:27:54;;;;;;;0.47;0.47;;;;;;;5.02;92.90;98284.34;5072757;28;20171;-78
2021/03/13 07:30:20;;;;;;;0.20;0.20;;;;;;;5.02;93.18;98260.00;5073231;28;20178;-78
2021/03/13 07:32:58;;;;;;;0.20;0.20;;;;;;;5.12;92.16;98273.16;5072860;28;20219;-78
2021/03/13 07:35:27;;;;;;;0.00;0.00;;;;;;;5.18;92.21;98268.34;5073106;28;20175;-78
2021/03/13 07:37:56;;;;;;;0.10;0.10;;;;;;;5.36;91.00;98256.28;5072259;28;20197;-77
2021/03/13 07:40:23;;;;;;;0.10;0.10;;;;;;;5.37;91.23;98239.69;5054878;28;20175;-74
2021/03/13 07:42:49;;;;;;;0.13;0.10;;;;;;;5.44;91.23;98230.25;5072976;28;20183;-75
2021/03/13 07:45:16;;;;;;;0.23;0.20;;;;;;;5.44;91.52;98200.44;5072619;28;20202;-75
2021/03/13 07:47:42;;;;;;;0.40;0.40;;;;;;;5.56;90.31;98230.28;5072350;28;20382;-76
2021/03/13 07:50:15;;;;;;;0.00;0.00;;;;;;;5.68;89.50;98238.47;5072527;28;20178;-75
2021/03/13 07:52:43;;;;;;;1.50;0.20;;;;;;;5.76;88.85;98264.69;5072735;28;20175;-77
2021/03/13 07:55:13;;;;;;;0.20;0.20;;;;;;;5.94;87.46;98224.69;5072532;28;20253;-77
2021/03/13 07:57:42;;;;;;;0.00;0.00;;;;;;;5.90;88.26;98227.28;5072179;28;20205;-77
2021/03/13 08:00:08;;;;;;;0.00;0.00;;;;;;;5.91;88.69;98238.91;5072432;28;20174;-69
2021/03/13 08:02:33;;;;;;;0.00;0.00;;;;;;;5.94;87.76;98201.09;5072721;28;20185;-77
2021/03/13 08:05:00;;;;;;;12.43;0.73;;;;;;;5.93;88.78;98185.16;5072609;28;20194;-78
2021/03/13 08:07:27;;;;;;;0.00;0.00;;;;;;;5.95;88.62;98189.13;5072098;28;20174;-78
2021/03/13 08:09:53;;;;;;;0.00;0.00;;;;;;;5.97;89.00;98178.75;5072536;28;20258;-77
2021/03/13 08:12:54;;;;;;;0.20;0.00;;;;;;;6.02;88.94;98175.00;5072506;28;20303;-77
2021/03/13 08:15:31;;;;;;;0.10;0.10;;;;;;;6.03;89.80;98168.47;5019675;28;20192;-76
2021/03/13 08:17:57;;;;;;;1.00;0.83;;;;;;;6.02;89.79;98163.38;5043584;28;20646;-75
2021/03/13 08:20:30;;;;;;;0.10;0.10;;;;;;;6.10;88.89;98154.38;5052062;28;20183;-77
2021/03/13 08:23:10;;;;;;;0.90;0.77;;;;;;;6.09;89.25;98137.31;5051523;28;20541;-77
2021/03/13 08:25:51;;;;;;;0.00;0.00;;;;;;;6.12;89.26;98143.97;5049979;28;20289;-77
2021/03/13 08:28:45;;;;;;;0.10;0.00;;;;;;;6.16;89.54;98131.31;5051656;28;20190;-78
2021/03/13 08:31:23;;;;;;;0.00;0.00;;;;;;;6.22;89.23;98122.63;5050682;28;20206;-77
2021/03/13 08:33:53;;;;;;;0.00;0.00;;;;;;;6.28;89.55;98128.59;5051686;28;20536;-77
2021/03/13 08:36:41;;;;;;;0.00;0.00;;;;;;;6.37;88.82;98113.03;5051412;28;20187;-77
2021/03/13 08:39:11;;;;;;;0.00;0.00;;;;;;;6.47;88.29;98114.47;5045769;28;20192;-77
2021/03/13 08:41:42;;;;;;;0.00;0.00;;;;;;;6.51;87.71;98104.53;5051691;28;20164;-76
2021/03/13 08:44:20;;;;;;;0.00;0.00;;;;;;;6.55;87.29;98108.91;5051569;28;20214;-78
2021/03/13 08:46:46;;;;;;;0.00;0.00;;;;;;;6.62;86.98;98110.25;5051204;28;20171;-77
2021/03/13 08:49:32;;;;;;;0.00;0.00;;;;;;;6.65;86.52;98106.84;5033755;28;20183;-77
2021/03/13 08:52:09;;;;;;;0.00;0.00;;;;;;;6.62;87.47;98102.91;5043708;28;20198;-76
2021/03/13 08:54:41;;;;;;;0.00;0.00;;;;;;;6.66;86.91;98089.47;5051520;28;20167;-76
2021/03/13 08:57:24;;;;;;;0.00;0.00;;;;;;;6.71;87.32;98102.78;5050940;28;20189;-76
2021/03/13 08:59:53;;;;;;;0.10;0.10;;;;;;;6.76;86.01;98105.25;5051234;28;20179;-77
2021/03/13 09:02:21;;;;;;;0.00;0.00;;;;;;;6.80;86.17;98089.88;5033340;28;20186;-77
2021/03/13 09:04:50;;;;;;;0.00;0.00;;;;;;;6.85;85.38;98089.63;5051260;28;20235;-76
2021/03/13 09:07:17;;;;;;;0.00;0.00;;;;;;;6.89;85.69;98095.94;5050849;28;20201;-77
2021/03/13 09:09:43;;;;;;;0.00;0.00;;;;;;;6.97;84.69;98067.09;5059015;28;20198;-76
2021/03/13 09:12:11;;;;;;;0.00;0.00;;;;;;;7.01;85.86;98036.16;5051075;28;20627;-76
2021/03/13 09:14:39;;;;;;;0.00;0.00;;;;;;;7.14;84.43;98045.84;5051078;28;20635;-77
2021/03/13 09:17:15;;;;;;;0.00;0.00;;;;;;;7.24;84.17;98058.13;5051048;28;20203;-76
2021/03/13 09:19:41;;;;;;;5.40;1.70;;;;;;;7.28;84.27;98056.28;5050781;28;20178;-77
2021/03/13 09:22:18;;;;;;;0.00;0.00;;;;;;;7.31;83.89;98066.44;5050853;28;20262;-77
2021/03/13 09:24:50;;;;;;;0.00;0.00;;;;;;;7.39;83.12;98056.56;5050372;28;20218;-76
2021/03/13 09:27:15;;;;;;;0.00;0.00;;;;;;;7.49;83.42;98045.16;5032601;28;20179;-75
2021/03/13 09:29:41;;;;;;;0.07;0.07;;;;;;;7.55;82.67;98057.38;5050710;28;20557;-76
2021/03/13 09:32:09;;;;;;;0.00;0.00;;;;;;;7.60;81.89;98061.75;5032792;28;20651;-77
2021/03/13 09:34:38;;;;;;;0.00;0.00;;;;;;;7.61;80.82;98055.16;5050206;28;20206;-76
2021/03/13 09:37:14;;;;;;;0.00;0.00;;;;;;;7.55;82.53;98054.66;5050236;28;20617;-76
2021/03/13 09:39:40;;;;;;;0.00;0.00;;;;;;;7.46;82.85;98086.63;5050850;28;20170;-76
2021/03/13 09:42:10;;;;;;;0.00;0.00;;;;;;;7.34;83.55;98098.34;5050818;28;20182;-76
2021/03/13 09:44:45;;;;;;;0.00;0.00;;;;;;;7.19;84.61;98114.59;5050697;28;20254;-76
2021/03/13 09:47:13;;;;;;;0.00;0.00;;;;;;;7.02;86.56;98161.84;5050482;28;20166;-77
2021/03/13 09:49:38;;;;;;;6.70;0.47;;;;;;;6.38;88.23;98162.63;5050700;28;20167;-77
2021/03/13 09:52:04;;;;;;;0.07;0.07;;;;;;;5.35;87.88;98195.94;5050536;28;20174;-78
2021/03/13 09:54:30;;;;;;;0.10;0.10;;;;;;;4.98;90.78;98161.69;5050413;28;20535;-76
2021/03/13 09:56:56;;;;;;;0.17;0.17;;;;;;;5.05;91.25;98191.69;5050129;28;20178;-75
2021/03/13 09:59:22;;;;;;;0.00;0.00;;;;;;;5.24;90.73;98140.59;5049633;28;20182;-76
2021/03/13 10:01:48;;;;;;;0.00;0.00;;;;;;;5.34;90.88;98142.88;5050524;28;20181;-77
2021/03/13 10:04:13;;;;;;;0.00;0.00;;;;;;;5.40;89.91;98142.69;5051450;28;20543;-76
2021/03/13 10:06:41;;;;;;;0.10;0.10;;;;;;;5.43;88.02;98144.72;5070222;28;20205;-76
2021/03/13 10:09:11;;;;;;;0.00;0.00;;;;;;;5.47;89.36;98124.75;5062611;28;20176;-76
2021/03/13 10:11:44;;;;;;;0.00;0.00;;;;;;;5.40;87.60;98129.94;5032436;28;20619;-76
2021/03/13 10:14:20;;;;;;;0.00;0.00;;;;;;;5.40;88.16;98138.06;5050177;28;20673;-77
2021/03/13 10:16:46;;;;;;;0.40;0.40;;;;;;;5.51;85.29;98131.09;5032088;28;20187;-76
2021/03/13 10:19:37;;;;;;;0.20;0.10;;;;;;;5.73;82.58;98135.31;5050239;28;20225;-75
2021/03/13 10:22:10;;;;;;;1.23;1.13;;;;;;;5.90;80.15;98151.41;5050322;28;20266;-76
2021/03/13 10:24:43;;;;;;;0.00;0.00;;;;;;;6.00;80.38;98133.13;5049414;28;20186;-74
2021/03/13 10:27:09;;;;;;;0.00;0.00;;;;;;;6.05;80.24;98136.38;5049318;28;20191;-74
2021/03/13 10:29:34;;;;;;;0.00;0.00;;;;;;;6.09;78.84;98133.81;5049891;28;20194;-74
2021/03/13 10:32:04;;;;;;;0.10;0.10;;;;;;;6.11;79.23;98135.06;5049955;28;20180;-73
2021/03/13 10:34:35;;;;;;;0.87;0.37;;;;;;;6.11;78.35;98126.13;5050129;28;20276;-75
2021/03/13 10:37:00;;;;;;;0.00;0.00;;;;;;;6.16;79.00;98134.03;5049768;28;20266;-76
2021/03/13 10:39:26;;;;;;;0.00;0.00;;;;;;;6.22;77.57;98124.53;5050186;28;20262;-76
2021/03/13 10:41:57;;;;;;;0.00;0.00;;;;;;;6.23;77.81;98120.72;5049918;28;20175;-74
2021/03/13 10:44:22;;;;;;;1.37;1.27;;;;;;;6.24;77.40;98127.72;5032110;28;20328;-75
2021/03/13 10:46:48;;;;;;;0.07;0.07;;;;;;;6.24;76.92;98114.94;5051095;28;20640;-78
2021/03/13 10:49:13;;;;;;;0.00;0.00;;;;;;;6.30;77.68;98109.28;5053875;28;20182;-75
2021/03/13 10:51:43;;;;;;;0.00;0.00;;;;;;;6.36;76.22;98106.00;5053664;28;20186;-76
2021/03/13 10:54:20;;;;;;;0.00;0.00;;;;;;;6.42;76.12;98093.78;5053864;28;20190;-77
2021/03/13 10:56:46;;;;;;;0.00;0.00;;;;;;;6.48;76.31;98095.13;5053345;28;20189;-75
2021/03/13 10:59:12;;;;;;;1.80;0.57;;;;;;;6.52;75.50;98096.03;5053520;28;20576;-75
2021/03/13 11:01:42;;;;;;;0.10;0.10;;;;;;;6.57;75.41;98103.94;5053522;28;20182;-75
2021/03/13 11:04:07;;;;;;;0.00;0.00;;;;;;;6.60;75.50;98105.16;5053354;28;20181;-74
2021/03/13 11:06:35;;;;;;;3.93;0.47;;;;;;;6.64;74.50;98106.06;5053253;28;20670;-76
2021/03/13 11:09:09;;;;;;;0.03;0.03;;;;;;;6.67;74.63;98101.91;5052837;28;20552;-75
2021/03/13 11:11:35;;;;;;;0.20;0.20;;;;;;;6.70;73.42;98091.13;5053421;28;20182;-74
2021/03/13 11:14:00;;;;;;;0.17;0.17;;;;;;;6.78;74.20;98095.63;5053172;28;20179;-75
2021/03/13 11:16:26;;;;;;;0.30;0.30;;;;;;;6.81;72.94;98089.53;5052688;28;20180;-75
2021/03/13 11:18:56;;;;;;;0.00;0.00;;;;;;;6.81;73.00;98092.25;5053146;28;20526;-76
2021/03/13 11:21:23;;;;;;;0.20;0.20;;;;;;;6.85;72.91;98089.63;5053257;28;20258;-76
2021/03/13 11:23:49;;;;;;;0.00;0.00;;;;;;;6.89;72.81;98085.06;5052699;28;20473;-76
2021/03/13 11:26:15;;;;;;;0.67;0.37;;;;;;;6.91;72.47;98085.50;5052690;28;20203;-78
2021/03/13 11:28:40;;;;;;;4.33;1.17;;;;;;;6.95;72.66;98075.56;5052768;28;20187;-74
2021/03/13 11:31:06;;;;;;;0.20;0.20;;;;;;;6.97;73.24;98102.38;5053080;28;20583;-75
2021/03/13 11:33:32;;;;;;;0.70;0.70;;;;;;;6.99;71.65;98073.75;5053205;28;20257;-75
2021/03/13 11:35:58;;;;;;;0.10;0.10;;;;;;;7.00;71.61;98063.66;5052955;28;20653;-75
2021/03/13 11:38:23;;;;;;;0.00;0.00;;;;;;;7.00;71.35;98069.88;5052575;28;20171;-71
2021/03/13 11:40:49;;;;;;;0.50;0.50;;;;;;;7.04;71.11;98081.63;5052672;28;20183;-77
2021/03/13 11:43:14;;;;;;;1.93;0.47;;;;;;;7.08;70.21;98079.00;5067996;28;20412;-75
2021/03/13 11:45:40;;;;;;;0.83;0.50;;;;;;;7.09;71.49;98065.09;5068609;28;20234;-75
2021/03/13 11:48:05;;;;;;;0.40;0.40;;;;;;;7.09;70.08;98064.31;5071767;28;20175;-73
2021/03/13 11:50:31;;;;;;;0.20;0.20;;;;;;;7.09;69.37;98046.09;5052529;28;20179;-75